sensor_id;sensor_type;location;lat;lon;timestamp;temperature;humidity
61201;DHT22;47065;52.898;6.992;2024-01-06T00:01:41;2.70;99.90
61201;DHT22;47065;52.898;6.992;2024-01-06T00:04:06;2.70;99.90
61201;DHT22;47065;52.898;6.992;2024-01-06T00:06:32;2.60;99.90
61201;DHT22;47065;52.898;6.992;2024-01-06T00:08:58;2.70;99.90
61201;DHT22;47065;52.898;6.992;2024-01-06T00:11:23;2.60;99.90
61201;DHT22;47065;52.898;6.992;2024-01-06T00:13:49;2.70;99.90
61201;DHT22;47065;52.898;6.992;2024-01-06T00:16:19;2.60;99.90
61201;DHT22;47065;52.898;6.992;2024-01-06T00:18:47;2.60;99.90
61201;DHT22;47065;52.898;6.992;2024-01-06T00:21:13;2.60;99.90
61201;DHT22;47065;52.898;6.992;2024-01-06T00:23:42;2.60;99.90
61201;DHT22;47065;52.898;6.992;2024-01-06T00:26:09;2.50;99.90
61201;DHT22;47065;52.898;6.992;2024-01-06T00:28:35;2.50;99.90
61201;DHT22;47065;52.898;6.992;2024-01-06T00:31:00;2.50;99.90
61201;DHT22;47065;52.898;6.992;2024-01-06T00:33:26;2.50;99.90
61201;DHT22;47065;52.898;6.992;2024-01-06T00:35:52;2.50;99.90
61201;DHT22;47065;52.898;6.992;2024-01-06T00:38:17;2.40;99.90
61201;DHT22;47065;52.898;6.992;2024-01-06T00:40:43;2.40;99.90
61201;DHT22;47065;52.898;6.992;2024-01-06T00:43:09;2.40;99.90
61201;DHT22;47065;52.898;6.992;2024-01-06T00:45:34;2.40;99.90
61201;DHT22;47065;52.898;6.992;2024-01-06T00:48:00;2.40;99.90
61201;DHT22;47065;52.898;6.992;2024-01-06T00:50:26;2.40;99.90
61201;DHT22;47065;52.898;6.992;2024-01-06T00:52:51;2.30;99.90
61201;DHT22;47065;52.898;6.992;2024-01-06T00:55:21;2.30;99.90
61201;DHT22;47065;52.898;6.992;2024-01-06T00:57:47;2.30;99.90
61201;DHT22;47065;52.898;6.992;2024-01-06T01:00:13;2.30;99.90
61201;DHT22;47065;52.898;6.992;2024-01-06T01:02:39;2.30;99.90
61201;DHT22;47065;52.898;6.992;2024-01-06T01:05:05;2.20;99.90
61201;DHT22;47065;52.898;6.992;2024-01-06T01:07:32;2.30;99.90
61201;DHT22;47065;52.898;6.992;2024-01-06T01:09:58;2.30;99.90
61201;DHT22;47065;52.898;6.992;2024-01-06T01:12:24;2.20;99.90
61201;DHT22;47065;52.898;6.992;2024-01-06T01:14:50;2.30;99.90
61201;DHT22;47065;52.898;6.992;2024-01-06T01:17:16;2.30;99.90
61201;DHT22;47065;52.898;6.992;2024-01-06T01:19:42;2.20;99.90
61201;DHT22;47065;52.898;6.992;2024-01-06T01:22:07;2.30;99.90
61201;DHT22;47065;52.898;6.992;2024-01-06T01:24:33;2.20;99.90
61201;DHT22;47065;52.898;6.992;2024-01-06T01:26:59;2.20;99.90
61201;DHT22;47065;52.898;6.992;2024-01-06T01:29:25;2.10;99.90
61201;DHT22;47065;52.898;6.992;2024-01-06T01:31:50;2.20;99.90
61201;DHT22;47065;52.898;6.992;2024-01-06T01:34:16;2.20;99.90
61201;DHT22;47065;52.898;6.992;2024-01-06T01:36:42;2.20;99.90
61201;DHT22;47065;52.898;6.992;2024-01-06T01:39:07;2.20;99.90
61201;DHT22;47065;52.898;6.992;2024-01-06T01:41:33;2.20;99.90
61201;DHT22;47065;52.898;6.992;2024-01-06T01:43:59;2.20;99.90
61201;DHT22;47065;52.898;6.992;2024-01-06T01:46:28;2.20;99.90
61201;DHT22;47065;52.898;6.992;2024-01-06T01:48:58;2.10;99.90
61201;DHT22;47065;52.898;6.992;2024-01-06T01:51:28;2.10;99.90
61201;DHT22;47065;52.898;6.992;2024-01-06T01:53:55;2.10;99.90
61201;DHT22;47065;52.898;6.992;2024-01-06T01:56:21;2.10;99.90
61201;DHT22;47065;52.898;6.992;2024-01-06T01:58:47;2.10;99.90
61201;DHT22;47065;52.898;6.992;2024-01-06T02:01:14;2.10;99.90
61201;DHT22;47065;52.898;6.992;2024-01-06T02:03:41;2.10;99.90
61201;DHT22;47065;52.898;6.992;2024-01-06T02:06:10;2.00;99.90
61201;DHT22;47065;52.898;6.992;2024-01-06T02:08:36;2.00;99.90
61201;DHT22;47065;52.898;6.992;2024-01-06T02:11:03;2.10;99.90
61201;DHT22;47065;52.898;6.992;2024-01-06T02:13:36;2.10;99.90
61201;DHT22;47065;52.898;6.992;2024-01-06T02:16:03;2.10;99.90
61201;DHT22;47065;52.898;6.992;2024-01-06T02:18:30;2.00;99.90
61201;DHT22;47065;52.898;6.992;2024-01-06T02:21:00;2.10;99.90
61201;DHT22;47065;52.898;6.992;2024-01-06T02:23:29;2.10;99.90
61201;DHT22;47065;52.898;6.992;2024-01-06T02:25:56;2.00;99.90
61201;DHT22;47065;52.898;6.992;2024-01-06T02:28:22;2.00;99.90
61201;DHT22;47065;52.898;6.992;2024-01-06T02:30:48;2.00;99.90
61201;DHT22;47065;52.898;6.992;2024-01-06T02:33:13;1.90;99.90
61201;DHT22;47065;52.898;6.992;2024-01-06T02:35:39;1.90;99.90
61201;DHT22;47065;52.898;6.992;2024-01-06T02:38:06;1.90;99.90
61201;DHT22;47065;52.898;6.992;2024-01-06T02:40:32;1.90;99.90
61201;DHT22;47065;52.898;6.992;2024-01-06T02:42:58;1.90;99.90
61201;DHT22;47065;52.898;6.992;2024-01-06T02:45:24;1.90;99.90
61201;DHT22;47065;52.898;6.992;2024-01-06T02:47:50;1.90;99.90
61201;DHT22;47065;52.898;6.992;2024-01-06T02:50:15;1.80;99.90
61201;DHT22;47065;52.898;6.992;2024-01-06T02:52:41;1.80;99.90
61201;DHT22;47065;52.898;6.992;2024-01-06T02:55:07;1.80;99.90
61201;DHT22;47065;52.898;6.992;2024-01-06T02:57:32;1.80;99.90
61201;DHT22;47065;52.898;6.992;2024-01-06T02:59:58;1.80;99.90
61201;DHT22;47065;52.898;6.992;2024-01-06T03:02:24;1.80;99.90
61201;DHT22;47065;52.898;6.992;2024-01-06T03:04:49;1.70;99.90
61201;DHT22;47065;52.898;6.992;2024-01-06T03:07:16;1.70;99.90
61201;DHT22;47065;52.898;6.992;2024-01-06T03:09:41;1.70;99.90
61201;DHT22;47065;52.898;6.992;2024-01-06T03:12:07;1.70;99.90
61201;DHT22;47065;52.898;6.992;2024-01-06T03:14:36;1.70;99.90
61201;DHT22;47065;52.898;6.992;2024-01-06T03:17:03;1.70;99.90
61201;DHT22;47065;52.898;6.992;2024-01-06T03:19:29;1.70;99.90
61201;DHT22;47065;52.898;6.992;2024-01-06T03:21:55;1.70;99.90
61201;DHT22;47065;52.898;6.992;2024-01-06T03:24:22;1.70;99.90
61201;DHT22;47065;52.898;6.992;2024-01-06T03:26:48;1.70;99.90
61201;DHT22;47065;52.898;6.992;2024-01-06T03:29:14;1.70;99.90
61201;DHT22;47065;52.898;6.992;2024-01-06T03:31:43;1.80;99.90
61201;DHT22;47065;52.898;6.992;2024-01-06T03:34:09;1.70;99.90
61201;DHT22;47065;52.898;6.992;2024-01-06T03:36:37;1.70;99.90
61201;DHT22;47065;52.898;6.992;2024-01-06T03:39:03;1.70;99.90
61201;DHT22;47065;52.898;6.992;2024-01-06T03:41:29;1.70;99.90
61201;DHT22;47065;52.898;6.992;2024-01-06T03:43:54;1.60;99.90
61201;DHT22;47065;52.898;6.992;2024-01-06T03:46:20;1.70;99.90
61201;DHT22;47065;52.898;6.992;2024-01-06T03:48:46;1.70;99.90
61201;DHT22;47065;52.898;6.992;2024-01-06T03:51:12;1.70;99.90
61201;DHT22;47065;52.898;6.992;2024-01-06T03:53:38;1.60;99.90
61201;DHT22;47065;52.898;6.992;2024-01-06T03:56:05;1.60;99.90
61201;DHT22;47065;52.898;6.992;2024-01-06T03:58:31;1.60;99.90
61201;DHT22;47065;52.898;6.992;2024-01-06T04:00:57;1.60;99.90
61201;DHT22;47065;52.898;6.992;2024-01-06T04:03:22;1.60;99.90
61201;DHT22;47065;52.898;6.992;2024-01-06T04:05:48;1.60;99.90
61201;DHT22;47065;52.898;6.992;2024-01-06T04:08:14;1.60;99.90
61201;DHT22;47065;52.898;6.992;2024-01-06T04:10:40;1.60;99.90
61201;DHT22;47065;52.898;6.992;2024-01-06T04:13:07;1.60;99.90
61201;DHT22;47065;52.898;6.992;2024-01-06T04:15:33;1.60;99.90
61201;DHT22;47065;52.898;6.992;2024-01-06T04:18:02;1.60;99.90
61201;DHT22;47065;52.898;6.992;2024-01-06T04:20:28;1.50;99.90
61201;DHT22;47065;52.898;6.992;2024-01-06T04:22:54;1.60;99.90
61201;DHT22;47065;52.898;6.992;2024-01-06T04:25:20;1.60;99.90
61201;DHT22;47065;52.898;6.992;2024-01-06T04:27:46;1.50;99.90
61201;DHT22;47065;52.898;6.992;2024-01-06T04:30:14;1.50;99.90
61201;DHT22;47065;52.898;6.992;2024-01-06T04:32:40;1.50;99.90
61201;DHT22;47065;52.898;6.992;2024-01-06T04:35:06;1.50;99.90
61201;DHT22;47065;52.898;6.992;2024-01-06T04:37:32;1.50;99.90
61201;DHT22;47065;52.898;6.992;2024-01-06T04:39:57;1.50;99.90
61201;DHT22;47065;52.898;6.992;2024-01-06T04:42:23;1.50;99.90
61201;DHT22;47065;52.898;6.992;2024-01-06T04:44:49;1.50;99.90
61201;DHT22;47065;52.898;6.992;2024-01-06T04:47:15;1.50;99.90
61201;DHT22;47065;52.898;6.992;2024-01-06T04:49:41;1.50;99.90
61201;DHT22;47065;52.898;6.992;2024-01-06T04:52:07;1.50;99.90
61201;DHT22;47065;52.898;6.992;2024-01-06T04:54:32;1.50;99.90
61201;DHT22;47065;52.898;6.992;2024-01-06T04:56:58;1.50;99.90
61201;DHT22;47065;52.898;6.992;2024-01-06T04:59:24;1.50;99.90
61201;DHT22;47065;52.898;6.992;2024-01-06T05:01:51;1.50;99.90
61201;DHT22;47065;52.898;6.992;2024-01-06T05:04:17;1.50;99.90
61201;DHT22;47065;52.898;6.992;2024-01-06T05:06:43;1.50;99.90
61201;DHT22;47065;52.898;6.992;2024-01-06T05:09:09;1.50;99.90
61201;DHT22;47065;52.898;6.992;2024-01-06T05:11:34;1.50;99.90
61201;DHT22;47065;52.898;6.992;2024-01-06T05:14:00;1.50;99.90
61201;DHT22;47065;52.898;6.992;2024-01-06T05:16:26;1.50;99.90
61201;DHT22;47065;52.898;6.992;2024-01-06T05:18:53;1.50;99.90
61201;DHT22;47065;52.898;6.992;2024-01-06T05:21:19;1.50;99.90
61201;DHT22;47065;52.898;6.992;2024-01-06T05:23:44;1.50;99.90
61201;DHT22;47065;52.898;6.992;2024-01-06T05:26:13;1.50;99.90
61201;DHT22;47065;52.898;6.992;2024-01-06T05:28:39;1.40;99.90
61201;DHT22;47065;52.898;6.992;2024-01-06T05:31:05;1.50;99.90
61201;DHT22;47065;52.898;6.992;2024-01-06T05:33:31;1.50;99.90
61201;DHT22;47065;52.898;6.992;2024-01-06T05:35:57;1.40;99.90
61201;DHT22;47065;52.898;6.992;2024-01-06T05:38:23;1.50;99.90
61201;DHT22;47065;52.898;6.992;2024-01-06T05:40:48;1.40;99.90
61201;DHT22;47065;52.898;6.992;2024-01-06T05:43:14;1.50;99.90
61201;DHT22;47065;52.898;6.992;2024-01-06T05:45:40;1.50;99.90
61201;DHT22;47065;52.898;6.992;2024-01-06T05:48:10;1.40;99.90
61201;DHT22;47065;52.898;6.992;2024-01-06T05:50:39;1.40;99.90
61201;DHT22;47065;52.898;6.992;2024-01-06T05:53:05;1.40;99.90
61201;DHT22;47065;52.898;6.992;2024-01-06T05:55:31;1.40;99.90
61201;DHT22;47065;52.898;6.992;2024-01-06T05:57:56;1.40;99.90
61201;DHT22;47065;52.898;6.992;2024-01-06T06:00:22;1.40;99.90
61201;DHT22;47065;52.898;6.992;2024-01-06T06:02:48;1.40;99.90
61201;DHT22;47065;52.898;6.992;2024-01-06T06:05:14;1.30;99.90
61201;DHT22;47065;52.898;6.992;2024-01-06T06:07:39;1.30;99.90
61201;DHT22;47065;52.898;6.992;2024-01-06T06:10:09;1.30;99.90
61201;DHT22;47065;52.898;6.992;2024-01-06T06:12:35;1.30;99.90
61201;DHT22;47065;52.898;6.992;2024-01-06T06:15:02;1.30;99.90
61201;DHT22;47065;52.898;6.992;2024-01-06T06:17:32;1.30;99.90
61201;DHT22;47065;52.898;6.992;2024-01-06T06:19:58;1.30;99.90
61201;DHT22;47065;52.898;6.992;2024-01-06T06:22:25;1.30;99.90
61201;DHT22;47065;52.898;6.992;2024-01-06T06:25:02;1.30;99.90
61201;DHT22;47065;52.898;6.992;2024-01-06T06:27:29;1.30;99.90
61201;DHT22;47065;52.898;6.992;2024-01-06T06:29:55;1.30;99.90
61201;DHT22;47065;52.898;6.992;2024-01-06T06:32:23;1.30;99.90
61201;DHT22;47065;52.898;6.992;2024-01-06T06:34:50;1.30;99.90
61201;DHT22;47065;52.898;6.992;2024-01-06T06:37:16;1.30;99.90
61201;DHT22;47065;52.898;6.992;2024-01-06T06:39:41;1.30;99.90
61201;DHT22;47065;52.898;6.992;2024-01-06T06:42:10;1.30;99.90
61201;DHT22;47065;52.898;6.992;2024-01-06T06:44:36;1.30;99.90
61201;DHT22;47065;52.898;6.992;2024-01-06T06:47:01;1.30;99.90
61201;DHT22;47065;52.898;6.992;2024-01-06T06:49:27;1.20;99.90
61201;DHT22;47065;52.898;6.992;2024-01-06T06:51:52;1.30;99.90
61201;DHT22;47065;52.898;6.992;2024-01-06T06:54:18;1.30;99.90
61201;DHT22;47065;52.898;6.992;2024-01-06T06:56:44;1.20;99.90
61201;DHT22;47065;52.898;6.992;2024-01-06T06:59:10;1.20;99.90
61201;DHT22;47065;52.898;6.992;2024-01-06T07:01:36;1.20;99.90
61201;DHT22;47065;52.898;6.992;2024-01-06T07:04:02;1.20;99.90
61201;DHT22;47065;52.898;6.992;2024-01-06T07:06:28;1.20;99.90
61201;DHT22;47065;52.898;6.992;2024-01-06T07:08:55;1.30;99.90
61201;DHT22;47065;52.898;6.992;2024-01-06T07:11:20;1.20;99.90
61201;DHT22;47065;52.898;6.992;2024-01-06T07:13:46;1.30;99.90
61201;DHT22;47065;52.898;6.992;2024-01-06T07:16:12;1.20;99.90
61201;DHT22;47065;52.898;6.992;2024-01-06T07:18:38;1.20;99.90
61201;DHT22;47065;52.898;6.992;2024-01-06T07:21:05;1.20;99.90
61201;DHT22;47065;52.898;6.992;2024-01-06T07:23:32;1.20;99.90
61201;DHT22;47065;52.898;6.992;2024-01-06T07:25:58;1.20;99.90
61201;DHT22;47065;52.898;6.992;2024-01-06T07:28:24;1.20;99.90
61201;DHT22;47065;52.898;6.992;2024-01-06T07:30:50;1.10;99.90
61201;DHT22;47065;52.898;6.992;2024-01-06T07:33:16;1.10;99.90
61201;DHT22;47065;52.898;6.992;2024-01-06T07:35:41;1.10;99.90
61201;DHT22;47065;52.898;6.992;2024-01-06T07:38:09;1.10;99.90
61201;DHT22;47065;52.898;6.992;2024-01-06T07:40:36;1.10;99.90
61201;DHT22;47065;52.898;6.992;2024-01-06T07:43:02;1.10;99.90
61201;DHT22;47065;52.898;6.992;2024-01-06T07:45:27;1.10;99.90
61201;DHT22;47065;52.898;6.992;2024-01-06T07:47:53;1.10;99.90
61201;DHT22;47065;52.898;6.992;2024-01-06T07:50:19;1.00;99.90
61201;DHT22;47065;52.898;6.992;2024-01-06T07:52:44;1.00;99.90
61201;DHT22;47065;52.898;6.992;2024-01-06T07:55:10;1.00;99.90
61201;DHT22;47065;52.898;6.992;2024-01-06T07:57:35;1.00;99.90
61201;DHT22;47065;52.898;6.992;2024-01-06T08:00:01;1.00;99.90
61201;DHT22;47065;52.898;6.992;2024-01-06T08:02:27;1.00;99.90
61201;DHT22;47065;52.898;6.992;2024-01-06T08:04:52;1.00;99.90
61201;DHT22;47065;52.898;6.992;2024-01-06T08:07:21;1.00;99.90
61201;DHT22;47065;52.898;6.992;2024-01-06T08:09:46;1.00;99.90
61201;DHT22;47065;52.898;6.992;2024-01-06T08:12:12;1.00;99.90
61201;DHT22;47065;52.898;6.992;2024-01-06T08:14:38;1.00;99.90
61201;DHT22;47065;52.898;6.992;2024-01-06T08:17:03;1.00;99.90
61201;DHT22;47065;52.898;6.992;2024-01-06T08:19:29;1.00;99.90
61201;DHT22;47065;52.898;6.992;2024-01-06T08:21:57;1.00;99.90
61201;DHT22;47065;52.898;6.992;2024-01-06T08:24:22;1.00;99.90
61201;DHT22;47065;52.898;6.992;2024-01-06T08:26:48;1.00;99.90
61201;DHT22;47065;52.898;6.992;2024-01-06T08:29:14;1.00;99.90
61201;DHT22;47065;52.898;6.992;2024-01-06T08:31:41;1.00;99.90
61201;DHT22;47065;52.898;6.992;2024-01-06T08:34:07;1.00;99.90
61201;DHT22;47065;52.898;6.992;2024-01-06T08:36:34;1.00;99.90
61201;DHT22;47065;52.898;6.992;2024-01-06T08:39:00;1.00;99.90
61201;DHT22;47065;52.898;6.992;2024-01-06T08:41:25;1.10;99.90
61201;DHT22;47065;52.898;6.992;2024-01-06T08:43:51;1.10;99.90
61201;DHT22;47065;52.898;6.992;2024-01-06T08:46:17;1.10;99.90
61201;DHT22;47065;52.898;6.992;2024-01-06T08:48:42;1.10;99.90
61201;DHT22;47065;52.898;6.992;2024-01-06T08:51:08;1.10;99.90
61201;DHT22;47065;52.898;6.992;2024-01-06T08:53:34;1.10;99.90
61201;DHT22;47065;52.898;6.992;2024-01-06T08:56:02;1.10;99.90
61201;DHT22;47065;52.898;6.992;2024-01-06T08:58:27;1.10;99.90
61201;DHT22;47065;52.898;6.992;2024-01-06T09:00:53;1.10;99.90
61201;DHT22;47065;52.898;6.992;2024-01-06T09:03:19;1.10;99.90
61201;DHT22;47065;52.898;6.992;2024-01-06T09:05:55;1.10;99.90
61201;DHT22;47065;52.898;6.992;2024-01-06T09:08:21;1.20;99.90
61201;DHT22;47065;52.898;6.992;2024-01-06T09:10:47;1.20;99.90
61201;DHT22;47065;52.898;6.992;2024-01-06T09:13:13;1.20;99.90
61201;DHT22;47065;52.898;6.992;2024-01-06T09:15:38;1.20;99.90
61201;DHT22;47065;52.898;6.992;2024-01-06T09:18:04;1.20;99.90
61201;DHT22;47065;52.898;6.992;2024-01-06T09:20:30;1.20;99.90
61201;DHT22;47065;52.898;6.992;2024-01-06T09:22:55;1.20;99.90
61201;DHT22;47065;52.898;6.992;2024-01-06T09:25:21;1.20;99.90
61201;DHT22;47065;52.898;6.992;2024-01-06T09:27:50;1.30;99.90
61201;DHT22;47065;52.898;6.992;2024-01-06T09:30:16;1.30;99.90
61201;DHT22;47065;52.898;6.992;2024-01-06T09:32:42;1.30;99.90
61201;DHT22;47065;52.898;6.992;2024-01-06T09:35:08;1.30;99.90
61201;DHT22;47065;52.898;6.992;2024-01-06T09:37:33;1.30;99.90
61201;DHT22;47065;52.898;6.992;2024-01-06T09:39:59;1.30;99.90
61201;DHT22;47065;52.898;6.992;2024-01-06T09:42:25;1.30;99.90
61201;DHT22;47065;52.898;6.992;2024-01-06T09:44:51;1.30;99.90
61201;DHT22;47065;52.898;6.992;2024-01-06T09:47:18;1.40;99.90
61201;DHT22;47065;52.898;6.992;2024-01-06T09:49:49;1.40;99.90
61201;DHT22;47065;52.898;6.992;2024-01-06T09:52:16;1.40;99.90
61201;DHT22;47065;52.898;6.992;2024-01-06T09:54:51;1.40;99.90
61201;DHT22;47065;52.898;6.992;2024-01-06T09:57:17;1.40;99.90
61201;DHT22;47065;52.898;6.992;2024-01-06T09:59:46;1.40;99.90
61201;DHT22;47065;52.898;6.992;2024-01-06T10:02:16;1.40;99.90
61201;DHT22;47065;52.898;6.992;2024-01-06T10:04:43;1.50;99.90
61201;DHT22;47065;52.898;6.992;2024-01-06T10:07:10;1.50;99.90
61201;DHT22;47065;52.898;6.992;2024-01-06T10:09:38;1.50;99.90
61201;DHT22;47065;52.898;6.992;2024-01-06T10:12:04;1.50;99.90
61201;DHT22;47065;52.898;6.992;2024-01-06T10:14:30;1.50;99.90
61201;DHT22;47065;52.898;6.992;2024-01-06T10:16:56;1.40;99.90
61201;DHT22;47065;52.898;6.992;2024-01-06T10:19:23;1.50;99.90
61201;DHT22;47065;52.898;6.992;2024-01-06T10:21:49;1.50;99.90
61201;DHT22;47065;52.898;6.992;2024-01-06T10:24:17;1.50;99.90
61201;DHT22;47065;52.898;6.992;2024-01-06T10:26:45;1.50;99.90
61201;DHT22;47065;52.898;6.992;2024-01-06T10:29:11;1.50;99.90
61201;DHT22;47065;52.898;6.992;2024-01-06T10:31:38;1.50;99.90
61201;DHT22;47065;52.898;6.992;2024-01-06T10:34:04;1.50;99.90
61201;DHT22;47065;52.898;6.992;2024-01-06T10:36:29;1.50;99.90
61201;DHT22;47065;52.898;6.992;2024-01-06T10:38:57;1.50;99.90
61201;DHT22;47065;52.898;6.992;2024-01-06T10:41:23;1.50;99.90
61201;DHT22;47065;52.898;6.992;2024-01-06T10:43:51;1.50;99.90
61201;DHT22;47065;52.898;6.992;2024-01-06T10:46:18;1.50;99.90
61201;DHT22;47065;52.898;6.992;2024-01-06T10:48:44;1.50;99.90
61201;DHT22;47065;52.898;6.992;2024-01-06T10:51:13;1.50;99.90
61201;DHT22;47065;52.898;6.992;2024-01-06T10:53:42;1.50;99.90
61201;DHT22;47065;52.898;6.992;2024-01-06T10:56:09;1.50;99.90
61201;DHT22;47065;52.898;6.992;2024-01-06T10:58:47;1.50;99.90
61201;DHT22;47065;52.898;6.992;2024-01-06T11:01:20;1.50;99.90
61201;DHT22;47065;52.898;6.992;2024-01-06T11:03:47;1.50;99.90
61201;DHT22;47065;52.898;6.992;2024-01-06T11:06:14;1.50;99.90
61201;DHT22;47065;52.898;6.992;2024-01-06T11:11:29;1.50;99.90
61201;DHT22;47065;52.898;6.992;2024-01-06T11:14:22;1.50;99.90
61201;DHT22;47065;52.898;6.992;2024-01-06T11:16:50;1.50;99.90
61201;DHT22;47065;52.898;6.992;2024-01-06T11:24:52;1.40;99.90
61201;DHT22;47065;52.898;6.992;2024-01-06T11:27:28;1.50;99.90
61201;DHT22;47065;52.898;6.992;2024-01-06T11:29:55;1.40;99.90
61201;DHT22;47065;52.898;6.992;2024-01-06T11:32:28;1.40;99.90
61201;DHT22;47065;52.898;6.992;2024-01-06T11:34:56;1.40;99.90
61201;DHT22;47065;52.898;6.992;2024-01-06T11:37:25;1.40;99.90
61201;DHT22;47065;52.898;6.992;2024-01-06T11:39:59;1.40;99.90
61201;DHT22;47065;52.898;6.992;2024-01-06T11:42:32;1.50;99.90
61201;DHT22;47065;52.898;6.992;2024-01-06T11:45:02;1.40;99.90
61201;DHT22;47065;52.898;6.992;2024-01-06T11:47:29;1.40;99.90
61201;DHT22;47065;52.898;6.992;2024-01-06T11:49:56;1.40;99.90
61201;DHT22;47065;52.898;6.992;2024-01-06T11:52:24;1.40;99.90
61201;DHT22;47065;52.898;6.992;2024-01-06T11:54:52;1.50;99.90
61201;DHT22;47065;52.898;6.992;2024-01-06T11:57:18;1.50;99.90
61201;DHT22;47065;52.898;6.992;2024-01-06T11:59:43;1.50;99.90
61201;DHT22;47065;52.898;6.992;2024-01-06T12:02:12;1.50;99.90
61201;DHT22;47065;52.898;6.992;2024-01-06T12:04:38;1.50;99.90
61201;DHT22;47065;52.898;6.992;2024-01-06T12:07:09;1.50;99.90
61201;DHT22;47065;52.898;6.992;2024-01-06T12:09:38;1.50;99.90
61201;DHT22;47065;52.898;6.992;2024-01-06T12:12:05;1.50;99.90
61201;DHT22;47065;52.898;6.992;2024-01-06T12:14:31;1.50;99.90
61201;DHT22;47065;52.898;6.992;2024-01-06T12:17:01;1.50;99.90
61201;DHT22;47065;52.898;6.992;2024-01-06T12:19:32;1.40;99.90
61201;DHT22;47065;52.898;6.992;2024-01-06T12:21:58;1.50;99.90
61201;DHT22;47065;52.898;6.992;2024-01-06T12:24:26;1.50;99.90
61201;DHT22;47065;52.898;6.992;2024-01-06T12:26:52;1.50;99.90
61201;DHT22;47065;52.898;6.992;2024-01-06T12:29:18;1.60;99.90
61201;DHT22;47065;52.898;6.992;2024-01-06T12:31:46;1.60;99.90
61201;DHT22;47065;52.898;6.992;2024-01-06T12:34:12;1.60;99.90
61201;DHT22;47065;52.898;6.992;2024-01-06T12:36:39;1.60;99.90
61201;DHT22;47065;52.898;6.992;2024-01-06T12:39:05;1.60;99.90
61201;DHT22;47065;52.898;6.992;2024-01-06T12:41:31;1.60;99.90
61201;DHT22;47065;52.898;6.992;2024-01-06T12:44:00;1.60;99.90
61201;DHT22;47065;52.898;6.992;2024-01-06T12:46:27;1.60;99.90
61201;DHT22;47065;52.898;6.992;2024-01-06T12:48:52;1.50;99.90
61201;DHT22;47065;52.898;6.992;2024-01-06T12:51:18;1.50;99.90
61201;DHT22;47065;52.898;6.992;2024-01-06T12:53:44;1.50;99.90
61201;DHT22;47065;52.898;6.992;2024-01-06T12:56:09;1.50;99.90
61201;DHT22;47065;52.898;6.992;2024-01-06T12:58:35;1.50;99.90
61201;DHT22;47065;52.898;6.992;2024-01-06T13:01:01;1.50;99.90
61201;DHT22;47065;52.898;6.992;2024-01-06T13:03:28;1.50;99.90
61201;DHT22;47065;52.898;6.992;2024-01-06T13:05:54;1.50;99.90
61201;DHT22;47065;52.898;6.992;2024-01-06T13:08:20;1.50;99.90
61201;DHT22;47065;52.898;6.992;2024-01-06T13:10:46;1.50;99.90
61201;DHT22;47065;52.898;6.992;2024-01-06T13:13:12;1.50;99.90
61201;DHT22;47065;52.898;6.992;2024-01-06T13:15:37;1.50;99.90
61201;DHT22;47065;52.898;6.992;2024-01-06T13:18:03;1.50;99.90
61201;DHT22;47065;52.898;6.992;2024-01-06T13:20:29;1.50;99.90
61201;DHT22;47065;52.898;6.992;2024-01-06T13:22:54;1.50;99.90
61201;DHT22;47065;52.898;6.992;2024-01-06T13:25:20;1.50;99.90
61201;DHT22;47065;52.898;6.992;2024-01-06T13:27:47;1.40;99.90
61201;DHT22;47065;52.898;6.992;2024-01-06T13:30:13;1.40;99.90
61201;DHT22;47065;52.898;6.992;2024-01-06T13:32:40;1.40;99.90
61201;DHT22;47065;52.898;6.992;2024-01-06T13:35:06;1.30;99.90
61201;DHT22;47065;52.898;6.992;2024-01-06T13:37:32;1.30;99.90
61201;DHT22;47065;52.898;6.992;2024-01-06T13:39:58;1.20;99.90
61201;DHT22;47065;52.898;6.992;2024-01-06T13:42:24;1.30;99.90
61201;DHT22;47065;52.898;6.992;2024-01-06T13:44:50;1.30;99.90
61201;DHT22;47065;52.898;6.992;2024-01-06T13:47:16;1.30;99.90
61201;DHT22;47065;52.898;6.992;2024-01-06T13:49:41;1.20;99.90
61201;DHT22;47065;52.898;6.992;2024-01-06T13:52:07;1.20;99.90
61201;DHT22;47065;52.898;6.992;2024-01-06T13:54:36;1.20;99.90
61201;DHT22;47065;52.898;6.992;2024-01-06T13:57:02;1.20;99.90
61201;DHT22;47065;52.898;6.992;2024-01-06T13:59:28;1.20;99.90
61201;DHT22;47065;52.898;6.992;2024-01-06T14:01:54;1.10;99.90
61201;DHT22;47065;52.898;6.992;2024-01-06T14:04:19;1.10;99.90
61201;DHT22;47065;52.898;6.992;2024-01-06T14:06:45;1.10;99.90
61201;DHT22;47065;52.898;6.992;2024-01-06T14:09:13;1.10;99.90
61201;DHT22;47065;52.898;6.992;2024-01-06T14:11:39;1.10;99.90
61201;DHT22;47065;52.898;6.992;2024-01-06T14:14:04;1.10;99.90
61201;DHT22;47065;52.898;6.992;2024-01-06T14:16:30;1.10;99.90
61201;DHT22;47065;52.898;6.992;2024-01-06T14:18:56;1.10;99.90
61201;DHT22;47065;52.898;6.992;2024-01-06T14:21:23;1.10;99.90
61201;DHT22;47065;52.898;6.992;2024-01-06T14:23:48;1.10;99.90
61201;DHT22;47065;52.898;6.992;2024-01-06T14:26:16;1.10;99.90
61201;DHT22;47065;52.898;6.992;2024-01-06T14:28:42;1.20;99.90
61201;DHT22;47065;52.898;6.992;2024-01-06T14:31:08;1.10;99.90
61201;DHT22;47065;52.898;6.992;2024-01-06T14:33:35;1.10;99.90
61201;DHT22;47065;52.898;6.992;2024-01-06T14:36:01;1.00;99.90
61201;DHT22;47065;52.898;6.992;2024-01-06T14:38:27;1.00;99.90
61201;DHT22;47065;52.898;6.992;2024-01-06T14:40:53;1.00;99.90
61201;DHT22;47065;52.898;6.992;2024-01-06T14:43:19;1.10;99.90
61201;DHT22;47065;52.898;6.992;2024-01-06T14:45:46;1.00;99.90
61201;DHT22;47065;52.898;6.992;2024-01-06T14:48:12;1.00;99.90
61201;DHT22;47065;52.898;6.992;2024-01-06T14:50:37;1.00;99.90
61201;DHT22;47065;52.898;6.992;2024-01-06T14:53:03;1.00;99.90
61201;DHT22;47065;52.898;6.992;2024-01-06T14:55:29;1.00;99.90
61201;DHT22;47065;52.898;6.992;2024-01-06T14:57:55;1.00;99.90
61201;DHT22;47065;52.898;6.992;2024-01-06T15:00:20;1.00;99.90
61201;DHT22;47065;52.898;6.992;2024-01-06T15:02:46;1.00;99.90
61201;DHT22;47065;52.898;6.992;2024-01-06T15:05:13;1.00;99.90
61201;DHT22;47065;52.898;6.992;2024-01-06T15:07:39;1.00;99.90
61201;DHT22;47065;52.898;6.992;2024-01-06T15:10:06;1.00;99.90
61201;DHT22;47065;52.898;6.992;2024-01-06T15:12:35;1.00;99.90
61201;DHT22;47065;52.898;6.992;2024-01-06T15:15:00;0.90;99.90
61201;DHT22;47065;52.898;6.992;2024-01-06T15:17:26;1.00;99.90
61201;DHT22;47065;52.898;6.992;2024-01-06T15:19:52;0.90;99.90
61201;DHT22;47065;52.898;6.992;2024-01-06T15:22:18;0.90;99.90
61201;DHT22;47065;52.898;6.992;2024-01-06T15:24:44;0.90;99.90
61201;DHT22;47065;52.898;6.992;2024-01-06T15:27:10;0.90;99.90
61201;DHT22;47065;52.898;6.992;2024-01-06T15:29:36;0.90;99.90
61201;DHT22;47065;52.898;6.992;2024-01-06T15:32:02;0.80;99.90
61201;DHT22;47065;52.898;6.992;2024-01-06T15:34:28;0.80;99.90
61201;DHT22;47065;52.898;6.992;2024-01-06T15:36:53;0.80;99.90
61201;DHT22;47065;52.898;6.992;2024-01-06T15:39:19;0.80;99.90
61201;DHT22;47065;52.898;6.992;2024-01-06T15:41:45;0.70;99.90
61201;DHT22;47065;52.898;6.992;2024-01-06T15:44:10;0.70;99.90
61201;DHT22;47065;52.898;6.992;2024-01-06T15:46:36;0.70;99.90
61201;DHT22;47065;52.898;6.992;2024-01-06T15:49:02;0.70;99.90